sensor_id;sensor_type;location;lat;lon;timestamp;P1;durP1;ratioP1;P2;durP2;ratioP2
2868;SDS011;1442;47.448;8.582;2023-07-09T00:00:11;8.43;;;4.30;;
2868;SDS011;1442;47.448;8.582;2023-07-09T00:02:40;7.70;;;4.88;;
2868;SDS011;1442;47.448;8.582;2023-07-09T00:05:09;6.80;;;4.82;;
2868;SDS011;1442;47.448;8.582;2023-07-09T00:07:37;9.18;;;4.65;;
2868;SDS011;1442;47.448;8.582;2023-07-09T00:10:05;10.48;;;4.78;;
2868;SDS011;1442;47.448;8.582;2023-07-09T00:12:32;10.93;;;4.70;;
2868;SDS011;1442;47.448;8.582;2023-07-09T00:15:00;8.27;;;5.15;;
2868;SDS011;1442;47.448;8.582;2023-07-09T00:17:29;7.43;;;4.97;;
2868;SDS011;1442;47.448;8.582;2023-07-09T00:19:56;8.27;;;4.72;;
2868;SDS011;1442;47.448;8.582;2023-07-09T00:22:25;10.88;;;4.75;;
2868;SDS011;1442;47.448;8.582;2023-07-09T00:24:53;10.32;;;5.07;;
2868;SDS011;1442;47.448;8.582;2023-07-09T00:27:22;6.35;;;4.25;;
2868;SDS011;1442;47.448;8.582;2023-07-09T00:29:50;7.03;;;4.30;;
2868;SDS011;1442;47.448;8.582;2023-07-09T00:32:18;9.77;;;4.40;;
2868;SDS011;1442;47.448;8.582;2023-07-09T00:34:46;9.05;;;5.07;;
2868;SDS011;1442;47.448;8.582;2023-07-09T00:37:15;7.20;;;4.10;;
2868;SDS011;1442;47.448;8.582;2023-07-09T00:39:44;8.82;;;5.28;;
2868;SDS011;1442;47.448;8.582;2023-07-09T00:42:12;12.00;;;4.40;;
2868;SDS011;1442;47.448;8.582;2023-07-09T00:44:42;11.15;;;5.15;;
2868;SDS011;1442;47.448;8.582;2023-07-09T00:47:15;6.25;;;4.20;;
2868;SDS011;1442;47.448;8.582;2023-07-09T00:49:44;9.55;;;4.22;;
2868;SDS011;1442;47.448;8.582;2023-07-09T00:52:15;8.73;;;4.63;;
2868;SDS011;1442;47.448;8.582;2023-07-09T00:54:48;13.38;;;4.88;;
2868;SDS011;1442;47.448;8.582;2023-07-09T00:57:18;6.95;;;4.45;;
2868;SDS011;1442;47.448;8.582;2023-07-09T00:59:48;7.60;;;4.55;;
2868;SDS011;1442;47.448;8.582;2023-07-09T01:02:16;11.73;;;5.68;;
2868;SDS011;1442;47.448;8.582;2023-07-09T01:04:49;8.18;;;4.78;;
2868;SDS011;1442;47.448;8.582;2023-07-09T01:07:16;8.52;;;4.68;;
2868;SDS011;1442;47.448;8.582;2023-07-09T01:09:44;7.57;;;4.80;;
2868;SDS011;1442;47.448;8.582;2023-07-09T01:12:13;6.93;;;4.78;;
2868;SDS011;1442;47.448;8.582;2023-07-09T01:14:41;8.70;;;4.88;;
2868;SDS011;1442;47.448;8.582;2023-07-09T01:17:11;7.68;;;4.72;;
2868;SDS011;1442;47.448;8.582;2023-07-09T01:19:40;9.07;;;4.85;;
2868;SDS011;1442;47.448;8.582;2023-07-09T01:22:11;8.43;;;4.97;;
2868;SDS011;1442;47.448;8.582;2023-07-09T01:24:48;8.45;;;4.60;;
2868;SDS011;1442;47.448;8.582;2023-07-09T01:27:16;9.55;;;5.28;;
2868;SDS011;1442;47.448;8.582;2023-07-09T01:29:44;7.28;;;4.57;;
2868;SDS011;1442;47.448;8.582;2023-07-09T01:32:14;7.20;;;4.50;;
2868;SDS011;1442;47.448;8.582;2023-07-09T01:34:42;8.85;;;4.60;;
2868;SDS011;1442;47.448;8.582;2023-07-09T01:37:11;8.35;;;4.70;;
2868;SDS011;1442;47.448;8.582;2023-07-09T01:39:38;6.80;;;4.93;;
2868;SDS011;1442;47.448;8.582;2023-07-09T01:42:06;8.80;;;4.38;;
2868;SDS011;1442;47.448;8.582;2023-07-09T01:44:33;11.25;;;4.68;;
2868;SDS011;1442;47.448;8.582;2023-07-09T01:47:01;6.40;;;4.68;;
2868;SDS011;1442;47.448;8.582;2023-07-09T01:49:29;11.55;;;5.20;;
2868;SDS011;1442;47.448;8.582;2023-07-09T01:51:57;6.93;;;4.45;;
2868;SDS011;1442;47.448;8.582;2023-07-09T01:54:27;10.52;;;5.15;;
2868;SDS011;1442;47.448;8.582;2023-07-09T01:56:55;11.02;;;5.03;;
2868;SDS011;1442;47.448;8.582;2023-07-09T01:59:26;6.70;;;4.68;;
2868;SDS011;1442;47.448;8.582;2023-07-09T02:01:53;7.22;;;4.72;;
2868;SDS011;1442;47.448;8.582;2023-07-09T02:04:22;9.27;;;5.20;;
2868;SDS011;1442;47.448;8.582;2023-07-09T02:06:53;8.18;;;5.07;;
2868;SDS011;1442;47.448;8.582;2023-07-09T02:09:20;8.40;;;4.85;;
2868;SDS011;1442;47.448;8.582;2023-07-09T02:11:48;7.93;;;4.82;;
2868;SDS011;1442;47.448;8.582;2023-07-09T02:14:15;10.45;;;4.60;;
2868;SDS011;1442;47.448;8.582;2023-07-09T02:16:44;6.65;;;4.90;;
2868;SDS011;1442;47.448;8.582;2023-07-09T02:19:11;10.10;;;5.53;;
2868;SDS011;1442;47.448;8.582;2023-07-09T02:21:38;10.90;;;5.18;;
2868;SDS011;1442;47.448;8.582;2023-07-09T02:24:05;9.45;;;5.57;;
2868;SDS011;1442;47.448;8.582;2023-07-09T02:26:32;13.00;;;5.25;;
2868;SDS011;1442;47.448;8.582;2023-07-09T02:29:01;7.90;;;4.82;;
2868;SDS011;1442;47.448;8.582;2023-07-09T02:31:28;8.52;;;5.32;;
2868;SDS011;1442;47.448;8.582;2023-07-09T02:33:55;8.35;;;5.63;;
2868;SDS011;1442;47.448;8.582;2023-07-09T02:36:23;7.55;;;5.13;;
2868;SDS011;1442;47.448;8.582;2023-07-09T02:38:50;9.73;;;5.60;;
2868;SDS011;1442;47.448;8.582;2023-07-09T02:41:18;7.80;;;5.68;;
2868;SDS011;1442;47.448;8.582;2023-07-09T02:43:45;10.90;;;5.75;;
2868;SDS011;1442;47.448;8.582;2023-07-09T02:46:13;7.53;;;5.32;;
2868;SDS011;1442;47.448;8.582;2023-07-09T02:48:40;8.88;;;5.47;;
2868;SDS011;1442;47.448;8.582;2023-07-09T02:51:07;8.30;;;5.32;;
2868;SDS011;1442;47.448;8.582;2023-07-09T02:53:34;10.63;;;5.28;;
2868;SDS011;1442;47.448;8.582;2023-07-09T02:56:02;6.40;;;4.65;;
2868;SDS011;1442;47.448;8.582;2023-07-09T02:58:29;7.63;;;5.55;;
2868;SDS011;1442;47.448;8.582;2023-07-09T03:00:56;12.95;;;5.88;;
2868;SDS011;1442;47.448;8.582;2023-07-09T03:03:24;10.35;;;5.13;;
2868;SDS011;1442;47.448;8.582;2023-07-09T03:05:53;9.15;;;5.35;;
2868;SDS011;1442;47.448;8.582;2023-07-09T03:08:20;10.40;;;6.38;;
2868;SDS011;1442;47.448;8.582;2023-07-09T03:10:48;8.55;;;5.18;;
2868;SDS011;1442;47.448;8.582;2023-07-09T03:13:15;10.23;;;4.53;;
2868;SDS011;1442;47.448;8.582;2023-07-09T03:15:42;7.97;;;5.20;;
2868;SDS011;1442;47.448;8.582;2023-07-09T03:18:09;9.50;;;5.40;;
2868;SDS011;1442;47.448;8.582;2023-07-09T03:20:38;7.57;;;5.05;;
2868;SDS011;1442;47.448;8.582;2023-07-09T03:23:05;9.18;;;5.25;;
2868;SDS011;1442;47.448;8.582;2023-07-09T03:25:32;7.25;;;4.80;;
2868;SDS011;1442;47.448;8.582;2023-07-09T03:27:59;5.88;;;4.28;;
2868;SDS011;1442;47.448;8.582;2023-07-09T03:30:27;6.97;;;4.72;;
2868;SDS011;1442;47.448;8.582;2023-07-09T03:32:54;8.13;;;4.43;;
2868;SDS011;1442;47.448;8.582;2023-07-09T03:35:21;7.53;;;5.05;;
2868;SDS011;1442;47.448;8.582;2023-07-09T03:37:49;8.20;;;4.72;;
2868;SDS011;1442;47.448;8.582;2023-07-09T03:40:20;8.95;;;4.93;;
2868;SDS011;1442;47.448;8.582;2023-07-09T03:42:47;11.05;;;5.20;;
2868;SDS011;1442;47.448;8.582;2023-07-09T03:45:15;6.68;;;5.10;;
2868;SDS011;1442;47.448;8.582;2023-07-09T03:47:42;6.72;;;4.50;;
2868;SDS011;1442;47.448;8.582;2023-07-09T03:50:09;10.82;;;5.30;;
2868;SDS011;1442;47.448;8.582;2023-07-09T03:52:37;10.07;;;4.85;;
2868;SDS011;1442;47.448;8.582;2023-07-09T03:55:06;8.35;;;4.95;;
2868;SDS011;1442;47.448;8.582;2023-07-09T03:57:33;7.72;;;4.38;;
2868;SDS011;1442;47.448;8.582;2023-07-09T04:00:01;14.65;;;4.93;;
2868;SDS011;1442;47.448;8.582;2023-07-09T04:02:28;8.88;;;5.18;;
2868;SDS011;1442;47.448;8.582;2023-07-09T04:04:55;13.10;;;5.50;;
2868;SDS011;1442;47.448;8.582;2023-07-09T04:07:22;11.45;;;4.80;;
2868;SDS011;1442;47.448;8.582;2023-07-09T04:09:49;9.82;;;5.50;;
2868;SDS011;1442;47.448;8.582;2023-07-09T04:12:18;8.90;;;5.22;;
2868;SDS011;1442;47.448;8.582;2023-07-09T04:14:45;7.82;;;5.07;;
2868;SDS011;1442;47.448;8.582;2023-07-09T04:17:12;9.43;;;5.05;;
2868;SDS011;1442;47.448;8.582;2023-07-09T04:19:39;10.52;;;4.85;;
2868;SDS011;1442;47.448;8.582;2023-07-09T04:22:07;10.23;;;5.22;;
2868;SDS011;1442;47.448;8.582;2023-07-09T04:24:35;10.95;;;5.65;;
2868;SDS011;1442;47.448;8.582;2023-07-09T04:27:02;9.00;;;5.40;;
2868;SDS011;1442;47.448;8.582;2023-07-09T04:29:31;15.30;;;6.25;;
2868;SDS011;1442;47.448;8.582;2023-07-09T04:31:59;12.90;;;5.68;;
2868;SDS011;1442;47.448;8.582;2023-07-09T04:34:26;11.35;;;4.72;;
2868;SDS011;1442;47.448;8.582;2023-07-09T04:36:53;7.93;;;4.85;;
2868;SDS011;1442;47.448;8.582;2023-07-09T04:39:20;12.70;;;5.25;;
2868;SDS011;1442;47.448;8.582;2023-07-09T04:41:47;12.15;;;4.88;;
2868;SDS011;1442;47.448;8.582;2023-07-09T04:44:15;8.10;;;5.13;;
2868;SDS011;1442;47.448;8.582;2023-07-09T04:46:43;7.30;;;5.05;;
2868;SDS011;1442;47.448;8.582;2023-07-09T04:49:10;10.25;;;4.78;;
2868;SDS011;1442;47.448;8.582;2023-07-09T04:51:37;9.85;;;4.90;;
2868;SDS011;1442;47.448;8.582;2023-07-09T04:54:05;12.23;;;4.95;;
2868;SDS011;1442;47.448;8.582;2023-07-09T04:56:32;10.57;;;4.80;;
2868;SDS011;1442;47.448;8.582;2023-07-09T04:58:59;5.65;;;4.75;;
2868;SDS011;1442;47.448;8.582;2023-07-09T05:01:26;10.10;;;4.85;;
2868;SDS011;1442;47.448;8.582;2023-07-09T05:03:55;10.77;;;5.40;;
2868;SDS011;1442;47.448;8.582;2023-07-09T05:06:22;8.38;;;5.20;;
2868;SDS011;1442;47.448;8.582;2023-07-09T05:08:49;9.50;;;4.88;;
2868;SDS011;1442;47.448;8.582;2023-07-09T05:11:16;10.88;;;4.72;;
2868;SDS011;1442;47.448;8.582;2023-07-09T05:13:43;7.75;;;4.80;;
2868;SDS011;1442;47.448;8.582;2023-07-09T05:16:10;7.90;;;5.07;;
2868;SDS011;1442;47.448;8.582;2023-07-09T05:18:38;6.85;;;5.07;;
2868;SDS011;1442;47.448;8.582;2023-07-09T05:21:06;7.47;;;5.63;;
2868;SDS011;1442;47.448;8.582;2023-07-09T05:23:33;6.97;;;5.53;;
2868;SDS011;1442;47.448;8.582;2023-07-09T05:26:01;13.65;;;6.05;;
2868;SDS011;1442;47.448;8.582;2023-07-09T05:28:29;8.80;;;6.45;;
2868;SDS011;1442;47.448;8.582;2023-07-09T05:30:57;9.32;;;6.07;;
2868;SDS011;1442;47.448;8.582;2023-07-09T05:33:25;12.18;;;6.82;;
2868;SDS011;1442;47.448;8.582;2023-07-09T05:35:52;14.40;;;6.68;;
2868;SDS011;1442;47.448;8.582;2023-07-09T05:38:20;14.45;;;7.10;;
2868;SDS011;1442;47.448;8.582;2023-07-09T05:40:47;13.98;;;7.85;;
2868;SDS011;1442;47.448;8.582;2023-07-09T05:43:14;13.63;;;7.25;;
2868;SDS011;1442;47.448;8.582;2023-07-09T05:45:42;11.27;;;7.15;;
2868;SDS011;1442;47.448;8.582;2023-07-09T05:48:09;15.68;;;7.45;;
2868;SDS011;1442;47.448;8.582;2023-07-09T05:50:36;11.77;;;8.05;;
2868;SDS011;1442;47.448;8.582;2023-07-09T05:53:03;11.98;;;7.38;;
2868;SDS011;1442;47.448;8.582;2023-07-09T05:55:32;10.02;;;7.68;;
2868;SDS011;1442;47.448;8.582;2023-07-09T05:57:59;11.73;;;7.20;;
2868;SDS011;1442;47.448;8.582;2023-07-09T06:00:28;18.42;;;8.20;;
2868;SDS011;1442;47.448;8.582;2023-07-09T06:02:55;10.20;;;7.13;;
2868;SDS011;1442;47.448;8.582;2023-07-09T06:05:22;12.63;;;8.18;;
2868;SDS011;1442;47.448;8.582;2023-07-09T06:07:49;10.95;;;7.60;;
2868;SDS011;1442;47.448;8.582;2023-07-09T06:10:16;11.55;;;6.45;;
2868;SDS011;1442;47.448;8.582;2023-07-09T06:12:48;15.45;;;8.15;;
2868;SDS011;1442;47.448;8.582;2023-07-09T06:15:15;15.35;;;7.53;;
2868;SDS011;1442;47.448;8.582;2023-07-09T06:17:42;13.70;;;7.70;;
2868;SDS011;1442;47.448;8.582;2023-07-09T06:20:09;12.60;;;7.70;;
2868;SDS011;1442;47.448;8.582;2023-07-09T06:22:37;12.15;;;7.25;;
2868;SDS011;1442;47.448;8.582;2023-07-09T06:25:04;11.05;;;6.93;;
2868;SDS011;1442;47.448;8.582;2023-07-09T06:27:31;10.15;;;6.47;;
2868;SDS011;1442;47.448;8.582;2023-07-09T06:30:00;11.90;;;6.72;;
2868;SDS011;1442;47.448;8.582;2023-07-09T06:32:27;11.88;;;6.47;;
2868;SDS011;1442;47.448;8.582;2023-07-09T06:34:54;9.55;;;6.30;;
2868;SDS011;1442;47.448;8.582;2023-07-09T06:37:21;14.02;;;5.97;;
2868;SDS011;1442;47.448;8.582;2023-07-09T06:39:49;7.22;;;5.63;;
2868;SDS011;1442;47.448;8.582;2023-07-09T06:42:16;11.43;;;6.22;;
2868;SDS011;1442;47.448;8.582;2023-07-09T06:44:43;9.80;;;6.00;;
2868;SDS011;1442;47.448;8.582;2023-07-09T06:47:11;9.65;;;4.97;;
2868;SDS011;1442;47.448;8.582;2023-07-09T06:49:38;6.72;;;4.35;;
2868;SDS011;1442;47.448;8.582;2023-07-09T06:52:06;6.45;;;4.90;;
2868;SDS011;1442;47.448;8.582;2023-07-09T06:54:33;8.18;;;4.40;;
2868;SDS011;1442;47.448;8.582;2023-07-09T06:57:00;5.38;;;3.80;;
2868;SDS011;1442;47.448;8.582;2023-07-09T06:59:27;6.93;;;3.80;;
2868;SDS011;1442;47.448;8.582;2023-07-09T07:01:54;7.40;;;4.15;;
2868;SDS011;1442;47.448;8.582;2023-07-09T07:04:23;7.35;;;3.65;;
2868;SDS011;1442;47.448;8.582;2023-07-09T07:06:52;6.28;;;3.90;;
2868;SDS011;1442;47.448;8.582;2023-07-09T07:09:20;5.70;;;3.40;;
2868;SDS011;1442;47.448;8.582;2023-07-09T07:11:48;12.65;;;3.90;;
2868;SDS011;1442;47.448;8.582;2023-07-09T07:14:15;5.50;;;3.55;;
2868;SDS011;1442;47.448;8.582;2023-07-09T07:16:42;7.22;;;3.95;;
2868;SDS011;1442;47.448;8.582;2023-07-09T07:19:09;8.20;;;3.53;;
2868;SDS011;1442;47.448;8.582;2023-07-09T07:21:38;7.32;;;4.07;;
2868;SDS011;1442;47.448;8.582;2023-07-09T07:24:05;6.70;;;4.35;;
2868;SDS011;1442;47.448;8.582;2023-07-09T07:26:32;5.40;;;3.85;;
2868;SDS011;1442;47.448;8.582;2023-07-09T07:29:00;6.72;;;4.25;;
2868;SDS011;1442;47.448;8.582;2023-07-09T07:31:27;10.10;;;4.03;;
2868;SDS011;1442;47.448;8.582;2023-07-09T07:33:54;8.05;;;4.50;;
2868;SDS011;1442;47.448;8.582;2023-07-09T07:36:21;5.90;;;3.85;;
2868;SDS011;1442;47.448;8.582;2023-07-09T07:38:49;6.18;;;3.50;;
2868;SDS011;1442;47.448;8.582;2023-07-09T07:41:17;7.68;;;3.55;;
2868;SDS011;1442;47.448;8.582;2023-07-09T07:43:44;7.95;;;3.60;;
2868;SDS011;1442;47.448;8.582;2023-07-09T07:46:11;13.10;;;4.07;;
2868;SDS011;1442;47.448;8.582;2023-07-09T07:48:38;6.22;;;3.72;;
2868;SDS011;1442;47.448;8.582;2023-07-09T07:51:05;7.97;;;4.15;;
2868;SDS011;1442;47.448;8.582;2023-07-09T07:53:32;6.63;;;4.35;;
2868;SDS011;1442;47.448;8.582;2023-07-09T07:56:01;11.00;;;4.65;;
2868;SDS011;1442;47.448;8.582;2023-07-09T07:58:28;7.30;;;3.90;;
2868;SDS011;1442;47.448;8.582;2023-07-09T08:00:55;6.43;;;4.10;;
2868;SDS011;1442;47.448;8.582;2023-07-09T08:03:22;5.40;;;3.72;;
2868;SDS011;1442;47.448;8.582;2023-07-09T08:05:50;5.18;;;3.33;;
2868;SDS011;1442;47.448;8.582;2023-07-09T08:08:17;8.55;;;3.80;;
2868;SDS011;1442;47.448;8.582;2023-07-09T08:10:44;11.00;;;3.95;;
2868;SDS011;1442;47.448;8.582;2023-07-09T08:13:13;10.55;;;4.07;;
2868;SDS011;1442;47.448;8.582;2023-07-09T08:15:40;4.32;;;3.92;;
2868;SDS011;1442;47.448;8.582;2023-07-09T08:18:07;5.43;;;3.55;;
2868;SDS011;1442;47.448;8.582;2023-07-09T08:20:34;9.02;;;3.60;;
2868;SDS011;1442;47.448;8.582;2023-07-09T08:23:02;10.10;;;4.25;;
2868;SDS011;1442;47.448;8.582;2023-07-09T08:25:29;8.45;;;4.50;;
2868;SDS011;1442;47.448;8.582;2023-07-09T08:27:56;8.05;;;4.45;;
2868;SDS011;1442;47.448;8.582;2023-07-09T08:30:24;7.03;;;4.35;;
2868;SDS011;1442;47.448;8.582;2023-07-09T08:32:52;6.20;;;4.60;;
2868;SDS011;1442;47.448;8.582;2023-07-09T08:35:20;8.35;;;3.75;;
2868;SDS011;1442;47.448;8.582;2023-07-09T08:37:47;8.75;;;4.22;;
2868;SDS011;1442;47.448;8.582;2023-07-09T08:40:15;10.57;;;4.90;;
2868;SDS011;1442;47.448;8.582;2023-07-09T08:42:43;5.45;;;4.00;;
2868;SDS011;1442;47.448;8.582;2023-07-09T08:45:14;6.63;;;3.63;;
2868;SDS011;1442;47.448;8.582;2023-07-09T08:47:47;8.38;;;4.30;;
2868;SDS011;1442;47.448;8.582;2023-07-09T08:50:17;10.15;;;4.20;;
2868;SDS011;1442;47.448;8.582;2023-07-09T08:52:46;11.82;;;4.70;;
2868;SDS011;1442;47.448;8.582;2023-07-09T08:55:15;6.55;;;4.32;;
2868;SDS011;1442;47.448;8.582;2023-07-09T08:57:43;9.75;;;4.40;;
2868;SDS011;1442;47.448;8.582;2023-07-09T09:00:14;5.75;;;4.22;;
2868;SDS011;1442;47.448;8.582;2023-07-09T09:02:44;8.75;;;4.50;;
2868;SDS011;1442;47.448;8.582;2023-07-09T09:05:16;7.25;;;4.05;;
2868;SDS011;1442;47.448;8.582;2023-07-09T09:07:44;7.60;;;4.28;;
2868;SDS011;1442;47.448;8.582;2023-07-09T09:10:14;9.50;;;4.13;;
2868;SDS011;1442;47.448;8.582;2023-07-09T09:12:48;7.72;;;4.38;;
2868;SDS011;1442;47.448;8.582;2023-07-09T09:15:19;7.47;;;4.28;;
2868;SDS011;1442;47.448;8.582;2023-07-09T09:17:48;8.63;;;4.57;;
2868;SDS011;1442;47.448;8.582;2023-07-09T09:20:19;7.25;;;4.50;;
2868;SDS011;1442;47.448;8.582;2023-07-09T09:22:48;12.73;;;4.40;;
2868;SDS011;1442;47.448;8.582;2023-07-09T09:25:20;6.82;;;4.65;;
2868;SDS011;1442;47.448;8.582;2023-07-09T09:27:50;10.60;;;4.50;;
2868;SDS011;1442;47.448;8.582;2023-07-09T09:30:18;6.03;;;4.40;;
2868;SDS011;1442;47.448;8.582;2023-07-09T09:32:47;7.25;;;4.50;;
2868;SDS011;1442;47.448;8.582;2023-07-09T09:35:15;9.65;;;4.60;;
2868;SDS011;1442;47.448;8.582;2023-07-09T09:37:51;5.72;;;4.13;;
2868;SDS011;1442;47.448;8.582;2023-07-09T09:40:19;7.32;;;4.43;;
2868;SDS011;1442;47.448;8.582;2023-07-09T09:42:48;6.63;;;4.13;;
2868;SDS011;1442;47.448;8.582;2023-07-09T09:45:16;7.82;;;4.97;;
2868;SDS011;1442;47.448;8.582;2023-07-09T09:47:44;14.63;;;4.57;;
2868;SDS011;1442;47.448;8.582;2023-07-09T09:50:13;10.00;;;4.55;;
2868;SDS011;1442;47.448;8.582;2023-07-09T09:52:40;7.28;;;4.20;;
2868;SDS011;1442;47.448;8.582;2023-07-09T09:55:11;8.98;;;4.40;;
2868;SDS011;1442;47.448;8.582;2023-07-09T09:57:38;9.48;;;4.63;;
2868;SDS011;1442;47.448;8.582;2023-07-09T10:00:12;12.68;;;4.57;;
2868;SDS011;1442;47.448;8.582;2023-07-09T10:02:41;9.45;;;4.63;;
2868;SDS011;1442;47.448;8.582;2023-07-09T10:05:11;6.28;;;4.30;;
2868;SDS011;1442;47.448;8.582;2023-07-09T10:07:39;6.22;;;4.07;;
2868;SDS011;1442;47.448;8.582;2023-07-09T10:10:10;7.18;;;4.50;;
2868;SDS011;1442;47.448;8.582;2023-07-09T10:12:40;7.75;;;4.43;;
2868;SDS011;1442;47.448;8.582;2023-07-09T10:15:17;7.80;;;4.15;;
2868;SDS011;1442;47.448;8.582;2023-07-09T10:17:56;6.40;;;3.95;;
2868;SDS011;1442;47.448;8.582;2023-07-09T10:20:27;8.93;;;4.38;;
2868;SDS011;1442;47.448;8.582;2023-07-09T10:22:57;6.40;;;4.43;;
2868;SDS011;1442;47.448;8.582;2023-07-09T10:25:35;8.75;;;3.90;;
2868;SDS011;1442;47.448;8.582;2023-07-09T10:28:14;10.00;;;3.95;;
2868;SDS011;1442;47.448;8.582;2023-07-09T10:30:48;9.77;;;4.35;;
2868;SDS011;1442;47.448;8.582;2023-07-09T10:33:18;6.23;;;4.20;;
2868;SDS011;1442;47.448;8.582;2023-07-09T10:35:50;7.32;;;3.58;;
2868;SDS011;1442;47.448;8.582;2023-07-09T10:38:35;4.75;;;3.75;;
2868;SDS011;1442;47.448;8.582;2023-07-09T10:41:07;6.53;;;3.47;;
2868;SDS011;1442;47.448;8.582;2023-07-09T10:43:37;6.90;;;3.88;;
2868;SDS011;1442;47.448;8.582;2023-07-09T10:46:05;6.18;;;3.97;;
2868;SDS011;1442;47.448;8.582;2023-07-09T10:48:37;6.18;;;4.10;;
2868;SDS011;1442;47.448;8.582;2023-07-09T10:51:05;5.90;;;3.90;;
2868;SDS011;1442;47.448;8.582;2023-07-09T10:53:38;5.28;;;4.00;;
2868;SDS011;1442;47.448;8.582;2023-07-09T10:56:10;8.70;;;3.47;;
2868;SDS011;1442;47.448;8.582;2023-07-09T10:58:40;6.90;;;3.42;;
2868;SDS011;1442;47.448;8.582;2023-07-09T11:01:10;14.50;;;3.88;;
2868;SDS011;1442;47.448;8.582;2023-07-09T11:03:42;6.57;;;4.20;;
2868;SDS011;1442;47.448;8.582;2023-07-09T11:06:11;6.32;;;3.80;;
2868;SDS011;1442;47.448;8.582;2023-07-09T11:08:40;5.27;;;3.50;;
2868;SDS011;1442;47.448;8.582;2023-07-09T11:11:10;6.43;;;4.00;;
2868;SDS011;1442;47.448;8.582;2023-07-09T11:16:07;6.18;;;3.67;;
2868;SDS011;1442;47.448;8.582;2023-07-09T11:18:39;4.05;;;3.50;;
2868;SDS011;1442;47.448;8.582;2023-07-09T11:21:07;4.95;;;3.50;;
2868;SDS011;1442;47.448;8.582;2023-07-09T11:23:39;6.05;;;3.58;;
2868;SDS011;1442;47.448;8.582;2023-07-09T11:26:13;8.50;;;3.67;;
2868;SDS011;1442;47.448;8.582;2023-07-09T11:28:41;7.72;;;3.72;;
2868;SDS011;1442;47.448;8.582;2023-07-09T11:31:18;5.38;;;3.45;;
2868;SDS011;1442;47.448;8.582;2023-07-09T11:33:47;7.38;;;4.00;;
2868;SDS011;1442;47.448;8.582;2023-07-09T11:36:23;6.05;;;3.47;;
2868;SDS011;1442;47.448;8.582;2023-07-09T11:38:51;5.20;;;3.75;;
2868;SDS011;1442;47.448;8.582;2023-07-09T11:41:26;7.40;;;3.83;;
2868;SDS011;1442;47.448;8.582;2023-07-09T11:44:00;8.10;;;3.85;;
2868;SDS011;1442;47.448;8.582;2023-07-09T11:46:28;4.80;;;3.22;;
2868;SDS011;1442;47.448;8.582;2023-07-09T11:48:55;7.18;;;3.38;;
2868;SDS011;1442;47.448;8.582;2023-07-09T11:51:28;8.30;;;3.03;;
2868;SDS011;1442;47.448;8.582;2023-07-09T11:53:59;10.05;;;3.53;;
2868;SDS011;1442;47.448;8.582;2023-07-09T11:56:29;10.75;;;3.38;;
2868;SDS011;1442;47.448;8.582;2023-07-09T11:58:57;7.13;;;3.60;;
2868;SDS011;1442;47.448;8.582;2023-07-09T12:01:27;10.43;;;4.00;;
2868;SDS011;1442;47.448;8.582;2023-07-09T12:03:57;6.13;;;3.60;;
2868;SDS011;1442;47.448;8.582;2023-07-09T12:06:26;4.10;;;3.50;;
2868;SDS011;1442;47.448;8.582;2023-07-09T12:08:55;7.18;;;3.78;;
2868;SDS011;1442;47.448;8.582;2023-07-09T12:11:23;5.25;;;3.63;;
2868;SDS011;1442;47.448;8.582;2023-07-09T12:13:52;10.30;;;3.88;;
2868;SDS011;1442;47.448;8.582;2023-07-09T12:16:21;6.57;;;3.83;;
2868;SDS011;1442;47.448;8.582;2023-07-09T12:18:48;6.43;;;3.45;;
2868;SDS011;1442;47.448;8.582;2023-07-09T12:21:15;9.32;;;3.50;;
2868;SDS011;1442;47.448;8.582;2023-07-09T12:23:42;8.23;;;3.22;;
2868;SDS011;1442;47.448;8.582;2023-07-09T12:26:10;10.57;;;4.00;;
2868;SDS011;1442;47.448;8.582;2023-07-09T12:28:38;8.90;;;3.60;;
2868;SDS011;1442;47.448;8.582;2023-07-09T12:31:11;4.75;;;3.28;;
2868;SDS011;1442;47.448;8.582;2023-07-09T12:33:45;5.35;;;3.75;;
2868;SDS011;1442;47.448;8.582;2023-07-09T12:36:13;5.07;;;3.83;;
2868;SDS011;1442;47.448;8.582;2023-07-09T12:38:42;7.68;;;3.83;;
2868;SDS011;1442;47.448;8.582;2023-07-09T12:41:14;9.10;;;4.20;;
2868;SDS011;1442;47.448;8.582;2023-07-09T12:43:43;4.43;;;3.38;;
2868;SDS011;1442;47.448;8.582;2023-07-09T12:46:11;5.63;;;3.45;;
2868;SDS011;1442;47.448;8.582;2023-07-09T12:48:39;7.10;;;3.80;;
2868;SDS011;1442;47.448;8.582;2023-07-09T12:51:07;7.38;;;3.85;;
2868;SDS011;1442;47.448;8.582;2023-07-09T12:53:35;9.73;;;3.85;;
2868;SDS011;1442;47.448;8.582;2023-07-09T12:56:03;7.40;;;3.50;;
2868;SDS011;1442;47.448;8.582;2023-07-09T12:58:37;9.88;;;3.42;;
2868;SDS011;1442;47.448;8.582;2023-07-09T13:01:05;5.57;;;3.30;;
2868;SDS011;1442;47.448;8.582;2023-07-09T13:03:34;9.52;;;3.30;;
2868;SDS011;1442;47.448;8.582;2023-07-09T13:06:02;6.32;;;3.55;;
2868;SDS011;1442;47.448;8.582;2023-07-09T13:08:30;8.23;;;3.83;;
2868;SDS011;1442;47.448;8.582;2023-07-09T13:10:59;7.28;;;3.70;;
2868;SDS011;1442;47.448;8.582;2023-07-09T13:13:26;5.45;;;3.40;;
2868;SDS011;1442;47.448;8.582;2023-07-09T13:15:54;7.43;;;3.75;;
2868;SDS011;1442;47.448;8.582;2023-07-09T13:18:24;6.15;;;3.40;;
2868;SDS011;1442;47.448;8.582;2023-07-09T13:20:53;9.52;;;3.58;;
2868;SDS011;1442;47.448;8.582;2023-07-09T13:23:22;5.38;;;3.33;;
2868;SDS011;1442;47.448;8.582;2023-07-09T13:25:50;5.10;;;3.00;;
2868;SDS011;1442;47.448;8.582;2023-07-09T13:28:20;6.60;;;3.40;;
2868;SDS011;1442;47.448;8.582;2023-07-09T13:30:48;6.45;;;3.70;;
2868;SDS011;1442;47.448;8.582;2023-07-09T13:33:17;5.97;;;3.05;;
2868;SDS011;1442;47.448;8.582;2023-07-09T13:35:44;9.30;;;3.00;;
2868;SDS011;1442;47.448;8.582;2023-07-09T13:38:16;5.72;;;3.40;;
2868;SDS011;1442;47.448;8.582;2023-07-09T13:40:44;4.78;;;3.22;;
2868;SDS011;1442;47.448;8.582;2023-07-09T13:43:12;10.25;;;4.05;;
2868;SDS011;1442;47.448;8.582;2023-07-09T13:45:39;6.13;;;3.20;;
2868;SDS011;1442;47.448;8.582;2023-07-09T13:48:10;5.97;;;3.33;;
2868;SDS011;1442;47.448;8.582;2023-07-09T13:50:38;5.07;;;2.92;;
2868;SDS011;1442;47.448;8.582;2023-07-09T13:53:09;10.00;;;3.65;;
2868;SDS011;1442;47.448;8.582;2023-07-09T13:55:37;7.22;;;3.20;;
2868;SDS011;1442;47.448;8.582;2023-07-09T13:58:04;3.85;;;2.97;;
2868;SDS011;1442;47.448;8.582;2023-07-09T14:00:32;6.90;;;3.33;;
2868;SDS011;1442;47.448;8.582;2023-07-09T14:02:59;8.20;;;3.33;;
2868;SDS011;1442;47.448;8.582;2023-07-09T14:05:26;8.43;;;3.40;;
2868;SDS011;1442;47.448;8.582;2023-07-09T14:07:53;5.55;;;3.72;;
2868;SDS011;1442;47.448;8.582;2023-07-09T14:10:21;5.65;;;3.28;;
2868;SDS011;1442;47.448;8.582;2023-07-09T14:12:49;5.07;;;3.33;;
2868;SDS011;1442;47.448;8.582;2023-07-09T14:15:19;8.52;;;3.15;;
2868;SDS011;1442;47.448;8.582;2023-07-09T14:17:46;12.13;;;3.60;;
2868;SDS011;1442;47.448;8.582;2023-07-09T14:20:15;9.02;;;3.30;;
2868;SDS011;1442;47.448;8.582;2023-07-09T14:22:42;10.48;;;4.22;;
2868;SDS011;1442;47.448;8.582;2023-07-09T14:25:14;5.78;;;3.30;;
2868;SDS011;1442;47.448;8.582;2023-07-09T14:27:42;5.53;;;3.38;;
2868;SDS011;1442;47.448;8.582;2023-07-09T14:30:13;6.10;;;3.13;;
2868;SDS011;1442;47.448;8.582;2023-07-09T14:32:40;5.43;;;2.90;;
2868;SDS011;1442;47.448;8.582;2023-07-09T14:35:11;8.55;;;3.22;;
2868;SDS011;1442;47.448;8.582;2023-07-09T14:37:38;9.82;;;3.88;;
2868;SDS011;1442;47.448;8.582;2023-07-09T14:40:06;10.65;;;4.13;;
2868;SDS011;1442;47.448;8.582;2023-07-09T14:42:33;8.77;;;3.83;;
2868;SDS011;1442;47.448;8.582;2023-07-09T14:45:00;5.00;;;3.25;;
2868;SDS011;1442;47.448;8.582;2023-07-09T14:47:29;9.43;;;3.83;;
2868;SDS011;1442;47.448;8.582;2023-07-09T14:49:56;7.38;;;3.28;;
2868;SDS011;1442;47.448;8.582;2023-07-09T14:52:24;5.15;;;3.13;;
2868;SDS011;1442;47.448;8.582;2023-07-09T14:54:51;9.90;;;3.10;;
2868;SDS011;1442;47.448;8.582;2023-07-09T14:57:19;5.38;;;3.50;;
2868;SDS011;1442;47.448;8.582;2023-07-09T14:59:47;7.18;;;3.33;;
2868;SDS011;1442;47.448;8.582;2023-07-09T15:02:21;6.13;;;3.47;;
2868;SDS011;1442;47.448;8.582;2023-07-09T15:04:50;5.65;;;2.85;;
2868;SDS011;1442;47.448;8.582;2023-07-09T15:07:17;5.78;;;3.63;;
2868;SDS011;1442;47.448;8.582;2023-07-09T15:09:45;3.92;;;3.20;;
2868;SDS011;1442;47.448;8.582;2023-07-09T15:12:15;8.57;;;3.42;;
2868;SDS011;1442;47.448;8.582;2023-07-09T15:14:43;6.45;;;3.40;;
2868;SDS011;1442;47.448;8.582;2023-07-09T15:17:10;6.78;;;3.50;;
2868;SDS011;1442;47.448;8.582;2023-07-09T15:19:38;5.93;;;3.45;;
2868;SDS011;1442;47.448;8.582;2023-07-09T15:22:07;10.38;;;3.33;;